createdAt,value
2017-08-14T00:01:51.524Z,85.20
2017-08-14T00:04:19.912Z,84.10
2017-08-14T00:06:47.474Z,84.70
2017-08-14T00:09:15.053Z,85.00
2017-08-14T00:11:42.661Z,84.90
2017-08-14T00:14:10.238Z,84.80
2017-08-14T00:16:37.836Z,85.20
2017-08-14T00:19:06.190Z,85.00
2017-08-14T00:21:33.776Z,85.00
2017-08-14T00:24:01.385Z,84.80
2017-08-14T00:26:28.959Z,85.00
2017-08-14T00:28:56.581Z,84.90
2017-08-14T00:31:24.141Z,84.70
2017-08-14T00:33:51.710Z,85.30
2017-08-14T00:36:19.308Z,85.40
2017-08-14T00:38:46.872Z,85.40
2017-08-14T00:41:14.469Z,85.40
2017-08-14T00:43:42.033Z,85.20
2017-08-14T00:46:09.632Z,84.40
2017-08-14T00:48:37.236Z,84.30
2017-08-14T00:51:04.830Z,84.70
2017-08-14T00:53:32.417Z,84.80
2017-08-14T00:55:59.992Z,85.00
2017-08-14T00:58:27.545Z,84.90
2017-08-14T01:00:55.132Z,85.00
2017-08-14T01:03:22.721Z,84.80
2017-08-14T01:05:51.085Z,84.30
2017-08-14T01:08:18.669Z,84.80
2017-08-14T01:10:46.269Z,85.10
2017-08-14T01:13:13.853Z,85.40
2017-08-14T01:15:41.414Z,85.60
2017-08-14T01:18:09.023Z,85.40
2017-08-14T01:20:37.370Z,85.40
2017-08-14T01:23:04.940Z,85.40
2017-08-14T01:25:32.543Z,86.20
2017-08-14T01:28:00.132Z,85.50
2017-08-14T01:30:27.734Z,85.80
2017-08-14T01:32:55.314Z,85.90
2017-08-14T01:35:22.880Z,86.20
2017-08-14T01:37:51.252Z,85.60
2017-08-14T01:40:19.598Z,85.40
2017-08-14T01:42:47.206Z,85.40
2017-08-14T01:45:14.774Z,85.30
2017-08-14T01:47:42.347Z,85.00
2017-08-14T01:50:09.955Z,85.40
2017-08-14T01:52:37.544Z,85.40
2017-08-14T01:55:05.937Z,86.00
2017-08-14T01:57:33.525Z,86.00
2017-08-14T02:00:01.110Z,86.20
2017-08-14T02:02:28.707Z,86.80
2017-08-14T02:04:56.309Z,86.40
2017-08-14T02:07:23.918Z,86.00
2017-08-14T02:09:51.506Z,86.00
2017-08-14T02:12:19.100Z,85.40
2017-08-14T02:14:46.695Z,85.80
2017-08-14T02:17:14.266Z,86.10
2017-08-14T02:19:41.841Z,86.30
2017-08-14T02:22:09.384Z,86.30
2017-08-14T02:24:36.931Z,86.30
2017-08-14T02:27:04.491Z,86.20
2017-08-14T02:29:32.046Z,86.20
2017-08-14T02:31:59.599Z,86.60
2017-08-14T02:34:27.196Z,86.80
2017-08-14T02:36:54.752Z,87.80
2017-08-14T02:39:22.302Z,87.50
2017-08-14T02:41:49.883Z,87.40
2017-08-14T02:44:17.428Z,87.90
2017-08-14T02:46:44.995Z,87.80
2017-08-14T02:49:12.576Z,87.70
2017-08-14T02:51:40.131Z,88.00
2017-08-14T02:54:07.671Z,87.50
2017-08-14T02:56:35.256Z,87.40
2017-08-14T02:59:02.789Z,88.30
2017-08-14T03:01:30.346Z,89.00
2017-08-14T03:03:57.909Z,89.10
2017-08-14T03:06:25.445Z,89.10
2017-08-14T03:08:53.279Z,89.30
2017-08-14T03:11:20.856Z,89.30
2017-08-14T03:13:48.409Z,89.20
2017-08-14T03:16:15.940Z,88.80
2017-08-14T03:18:43.510Z,89.60
2017-08-14T03:21:11.044Z,88.80
2017-08-14T03:23:38.585Z,88.60
2017-08-14T03:26:06.923Z,88.70
2017-08-14T03:28:34.470Z,88.70
2017-08-14T03:31:02.020Z,88.50
2017-08-14T03:33:29.589Z,88.50
2017-08-14T03:35:57.123Z,88.80
2017-08-14T03:38:24.677Z,89.10
2017-08-14T03:40:53.018Z,89.20
2017-08-14T03:43:20.577Z,89.20
2017-08-14T03:45:48.116Z,89.40
2017-08-14T03:48:15.692Z,89.30
2017-08-14T03:50:43.235Z,89.30
2017-08-14T03:53:10.776Z,89.10
2017-08-14T03:55:38.347Z,88.90
2017-08-14T03:58:05.900Z,88.70
2017-08-14T04:00:33.444Z,89.00
2017-08-14T04:03:01.019Z,89.00
2017-08-14T04:05:28.572Z,89.20
2017-08-14T04:07:56.124Z,90.00
2017-08-14T04:10:23.907Z,89.50
2017-08-14T04:12:51.454Z,90.10
2017-08-14T04:15:19.008Z,89.50
2017-08-14T04:17:46.582Z,89.30
2017-08-14T04:20:15.048Z,89.40
2017-08-14T04:22:43.358Z,89.80
2017-08-14T04:25:10.935Z,89.60
2017-08-14T04:27:38.487Z,89.70
2017-08-14T04:30:06.022Z,89.70
2017-08-14T04:32:33.578Z,89.80
2017-08-14T04:35:01.885Z,89.80
2017-08-14T04:37:29.423Z,89.80
2017-08-14T04:39:57.007Z,89.90
2017-08-14T04:42:24.560Z,89.80
2017-08-14T04:44:52.106Z,90.00
2017-08-14T04:47:19.696Z,90.00
2017-08-14T04:49:47.255Z,89.60
2017-08-14T04:52:14.793Z,89.60
2017-08-14T04:54:42.375Z,89.30
2017-08-14T04:57:09.914Z,89.20
2017-08-14T04:59:38.225Z,88.60
2017-08-14T05:02:05.824Z,88.60
2017-08-14T05:04:33.368Z,88.40
2017-08-14T05:07:00.918Z,88.30
2017-08-14T05:09:28.490Z,88.20
2017-08-14T05:11:56.042Z,87.90
2017-08-14T05:14:23.577Z,87.40
2017-08-14T05:16:51.141Z,87.30
2017-08-14T05:19:18.675Z,86.90
2017-08-14T05:21:46.227Z,86.80
2017-08-14T05:24:13.798Z,86.60
2017-08-14T05:26:41.340Z,86.90
2017-08-14T05:29:08.881Z,86.60
2017-08-14T05:31:36.445Z,86.50
2017-08-14T05:34:04.005Z,86.40
2017-08-14T05:36:31.554Z,86.50
2017-08-14T05:38:59.134Z,86.50
2017-08-14T05:41:26.675Z,86.90
2017-08-14T05:43:54.228Z,87.00
2017-08-14T05:46:21.788Z,87.40
2017-08-14T05:48:49.342Z,87.00
2017-08-14T05:51:16.889Z,87.40
2017-08-14T05:53:44.460Z,87.50
2017-08-14T05:56:11.994Z,87.00
2017-08-14T05:58:39.522Z,87.00
2017-08-14T06:01:07.096Z,86.60
2017-08-14T06:03:34.633Z,87.20
2017-08-14T06:06:02.165Z,86.00
2017-08-14T06:08:29.738Z,86.30
2017-08-14T06:10:57.277Z,86.20
2017-08-14T06:13:25.598Z,86.60
2017-08-14T06:15:53.180Z,85.80
2017-08-14T06:18:20.732Z,85.80
2017-08-14T06:20:48.286Z,85.80
2017-08-14T06:23:15.880Z,85.60
2017-08-14T06:25:43.414Z,84.50
2017-08-14T06:28:10.953Z,84.10
2017-08-14T06:30:38.525Z,84.20
2017-08-14T06:33:06.060Z,84.10
2017-08-14T06:35:34.374Z,84.00
2017-08-14T06:38:01.954Z,84.10
2017-08-14T06:40:29.487Z,82.50
2017-08-14T06:42:57.029Z,82.20
2017-08-14T06:45:25.368Z,82.00
2017-08-14T06:47:52.924Z,82.00
2017-08-14T06:50:20.485Z,81.20
2017-08-14T06:52:48.074Z,81.30
2017-08-14T06:55:15.778Z,81.60
2017-08-14T06:57:43.420Z,81.10
2017-08-14T07:00:10.992Z,81.20
2017-08-14T07:02:38.559Z,80.80
2017-08-14T07:05:06.131Z,80.50
2017-08-14T07:07:33.734Z,80.10
2017-08-14T07:10:01.328Z,80.10
2017-08-14T07:12:28.922Z,80.20
2017-08-14T07:14:56.509Z,79.70
2017-08-14T07:17:24.059Z,79.30
2017-08-14T07:19:51.777Z,79.60
2017-08-14T07:22:19.357Z,78.70
2017-08-14T07:24:46.984Z,79.00
2017-08-14T07:29:46.299Z,78.50
2017-08-14T07:32:13.865Z,78.70
2017-08-14T07:34:41.428Z,76.90
2017-08-14T07:37:09.021Z,76.90
2017-08-14T07:39:36.569Z,76.30
2017-08-14T07:42:04.873Z,76.00
2017-08-14T07:44:32.472Z,75.30
2017-08-14T07:47:00.044Z,75.70
2017-08-14T07:49:27.600Z,74.90
2017-08-14T07:51:55.197Z,75.10
2017-08-14T07:54:22.730Z,74.70
2017-08-14T07:56:50.297Z,74.40
2017-08-14T07:59:17.871Z,74.50
2017-08-14T08:01:45.431Z,74.10
2017-08-14T08:04:12.986Z,73.60
2017-08-14T08:06:40.559Z,74.30
2017-08-14T08:09:08.085Z,74.30
2017-08-14T08:11:35.631Z,72.70
2017-08-14T08:14:03.205Z,72.80
2017-08-14T08:16:30.732Z,73.70
2017-08-14T08:18:59.045Z,71.90
2017-08-14T08:21:26.600Z,71.80
2017-08-14T08:23:54.143Z,70.90
2017-08-14T08:26:21.687Z,70.90
2017-08-14T08:28:50.012Z,70.50
2017-08-14T08:31:17.551Z,70.50
2017-08-14T08:33:45.085Z,70.60
2017-08-14T08:36:13.417Z,69.50
2017-08-14T08:38:40.968Z,69.30
2017-08-14T08:41:08.515Z,70.70
2017-08-14T08:43:36.091Z,70.10
2017-08-14T08:46:03.617Z,69.30
2017-08-14T08:48:31.928Z,68.90
2017-08-14T08:50:59.504Z,68.80
2017-08-14T08:53:27.039Z,69.70
2017-08-14T08:55:54.574Z,68.50
2017-08-14T08:58:22.901Z,67.90
2017-08-14T09:00:50.448Z,67.90
2017-08-14T09:03:17.981Z,67.20
2017-08-14T09:05:46.312Z,68.00
2017-08-14T09:08:13.837Z,68.00
2017-08-14T09:10:41.367Z,67.70
2017-08-14T09:13:08.951Z,65.40
2017-08-14T09:15:37.270Z,66.50
2017-08-14T09:18:04.821Z,66.50
2017-08-14T09:20:32.386Z,65.80
2017-08-14T09:22:59.922Z,66.70
2017-08-14T09:25:27.452Z,65.80
2017-08-14T09:27:55.029Z,63.70
2017-08-14T09:30:23.334Z,65.40
2017-08-14T09:32:50.886Z,64.70
2017-08-14T09:35:19.345Z,66.80
2017-08-14T09:37:46.982Z,66.80
2017-08-14T09:40:15.733Z,63.40
2017-08-14T09:42:43.344Z,64.10
2017-08-14T09:45:10.879Z,63.10
2017-08-14T09:47:38.432Z,60.80
2017-08-14T09:50:06.008Z,61.50
2017-08-14T09:52:33.547Z,62.90
2017-08-14T09:55:01.074Z,60.60
2017-08-14T09:57:29.403Z,59.60
2017-08-14T09:59:56.948Z,59.50
2017-08-14T10:02:24.503Z,60.00
2017-08-14T10:04:52.092Z,60.70
2017-08-14T10:07:19.638Z,58.80
2017-08-14T10:09:47.165Z,56.70
2017-08-14T10:12:15.494Z,60.00
2017-08-14T10:14:43.022Z,60.00
2017-08-14T10:17:10.558Z,59.00
2017-08-14T10:19:38.155Z,57.10
2017-08-14T10:22:05.681Z,58.40
2017-08-14T10:24:33.210Z,58.50
2017-08-14T10:27:00.774Z,58.20
2017-08-14T10:29:28.308Z,57.10
2017-08-14T10:31:55.838Z,58.60
2017-08-14T10:34:24.163Z,58.70
2017-08-14T10:36:51.696Z,58.80
2017-08-14T10:39:19.244Z,57.90
2017-08-14T10:41:47.590Z,57.50
2017-08-14T10:44:15.135Z,57.50
2017-08-14T10:46:42.706Z,57.20
2017-08-14T10:49:10.285Z,55.80
2017-08-14T10:51:37.811Z,55.50
2017-08-14T10:54:05.568Z,56.40
2017-08-14T10:56:33.140Z,55.60
2017-08-14T10:59:00.664Z,55.30
2017-08-14T11:01:28.953Z,55.00
2017-08-14T11:03:56.504Z,54.80
2017-08-14T11:06:24.812Z,53.50
2017-08-14T11:08:52.337Z,53.40
2017-08-14T11:11:19.932Z,53.60
2017-08-14T11:13:47.461Z,53.90
2017-08-14T11:16:15.756Z,55.00
2017-08-14T11:18:43.331Z,54.90
2017-08-14T11:21:10.861Z,54.20
2017-08-14T11:23:38.434Z,54.40
2017-08-14T11:26:06.778Z,52.80
2017-08-14T11:28:34.389Z,52.80
2017-08-14T11:31:03.225Z,52.90
2017-08-14T11:33:30.782Z,52.10
2017-08-14T11:35:58.313Z,51.40
2017-08-14T11:38:25.853Z,51.60
2017-08-14T11:40:54.190Z,51.60
2017-08-14T11:43:21.725Z,51.50
2017-08-14T11:45:49.275Z,53.10
2017-08-14T11:48:16.849Z,52.00
2017-08-14T11:50:44.386Z,52.50
2017-08-14T11:53:11.940Z,53.00
2017-08-14T11:55:40.280Z,52.70
2017-08-14T11:58:07.844Z,52.70
2017-08-14T12:00:35.379Z,52.20
2017-08-14T12:03:02.945Z,51.70
2017-08-14T12:05:30.473Z,52.10
2017-08-14T12:07:57.997Z,51.60
2017-08-14T12:10:25.559Z,49.90
2017-08-14T12:12:53.102Z,50.30
2017-08-14T12:15:20.641Z,50.60
2017-08-14T12:17:48.203Z,51.20
2017-08-14T12:20:15.729Z,52.50
2017-08-14T12:22:44.048Z,51.10
2017-08-14T12:25:11.625Z,51.10
2017-08-14T12:27:39.276Z,51.40
2017-08-14T12:30:06.833Z,52.70
2017-08-14T12:32:34.398Z,52.00
2017-08-14T12:35:01.951Z,50.30
2017-08-14T12:37:29.492Z,50.70
2017-08-14T12:39:57.050Z,51.60
2017-08-14T12:42:24.581Z,51.30
2017-08-14T12:44:52.118Z,50.80
2017-08-14T12:47:19.680Z,51.50
2017-08-14T12:49:47.208Z,51.90
2017-08-14T12:52:14.756Z,51.50
2017-08-14T12:54:43.085Z,50.80
2017-08-14T12:57:10.612Z,50.80
2017-08-14T12:59:38.160Z,51.50
2017-08-14T13:02:06.487Z,51.40
2017-08-14T13:04:34.039Z,51.40
2017-08-14T13:07:01.587Z,51.50
2017-08-14T13:09:29.179Z,50.00
2017-08-14T13:11:56.720Z,51.80
2017-08-14T13:14:24.249Z,51.40
2017-08-14T13:16:51.834Z,49.80
2017-08-14T13:19:19.372Z,51.40
2017-08-14T13:21:47.665Z,51.20
2017-08-14T13:24:15.236Z,51.20
2017-08-14T13:26:42.784Z,52.50
2017-08-14T13:29:10.324Z,51.70
2017-08-14T13:31:38.648Z,54.00
2017-08-14T13:34:06.179Z,53.50
2017-08-14T13:36:33.724Z,53.00
2017-08-14T13:39:02.391Z,52.90
2017-08-14T13:41:29.930Z,52.90
2017-08-14T13:43:57.485Z,54.40
2017-08-14T13:46:25.033Z,53.00
2017-08-14T13:48:52.575Z,52.80
2017-08-14T13:51:20.130Z,53.50
2017-08-14T13:53:47.698Z,52.90
2017-08-14T13:56:15.258Z,53.60
2017-08-14T13:58:43.549Z,52.80
2017-08-14T14:01:11.128Z,52.70
2017-08-14T14:03:38.671Z,53.90
2017-08-14T14:06:06.206Z,53.10
2017-08-14T14:08:34.547Z,53.30
2017-08-14T14:11:02.073Z,53.20
2017-08-14T14:13:29.595Z,53.80
2017-08-14T14:15:57.158Z,53.90
2017-08-14T14:18:24.704Z,54.20
2017-08-14T14:20:52.243Z,53.40
2017-08-14T14:23:20.635Z,52.30
2017-08-14T14:25:48.166Z,53.30
2017-08-14T14:28:15.712Z,52.60
2017-08-14T14:30:44.033Z,51.60
2017-08-14T14:33:11.574Z,51.60
2017-08-14T14:35:39.120Z,53.00
2017-08-14T14:38:06.694Z,53.30
2017-08-14T14:40:34.231Z,53.10
2017-08-14T14:43:02.529Z,52.70
2017-08-14T14:45:30.099Z,52.60
2017-08-14T14:47:58.276Z,54.20
2017-08-14T14:50:25.837Z,53.80
2017-08-14T14:52:53.401Z,53.50
2017-08-14T14:55:21.533Z,54.50
2017-08-14T14:57:49.084Z,53.70
2017-08-14T15:00:16.672Z,53.60
2017-08-14T15:02:44.971Z,53.90
2017-08-14T15:05:12.515Z,53.90
2017-08-14T15:07:41.107Z,54.00
2017-08-14T15:10:08.655Z,54.00
2017-08-14T15:12:36.953Z,54.00
2017-08-14T15:15:04.527Z,54.00
2017-08-14T15:17:32.053Z,53.60
2017-08-14T15:20:00.368Z,53.20
2017-08-14T15:22:27.948Z,53.10
2017-08-14T15:24:55.505Z,53.30
2017-08-14T15:27:23.050Z,53.70
2017-08-14T15:29:50.622Z,53.90
2017-08-14T15:32:18.163Z,53.60
2017-08-14T15:34:45.700Z,53.30
2017-08-14T15:37:13.270Z,53.90
2017-08-14T15:39:41.569Z,55.20
2017-08-14T15:42:09.127Z,55.20
2017-08-14T15:44:36.703Z,54.20
2017-08-14T15:47:04.228Z,54.60
2017-08-14T15:49:32.554Z,54.10
2017-08-14T15:52:00.156Z,54.10
2017-08-14T15:54:27.728Z,54.40
2017-08-14T15:56:55.283Z,53.90
2017-08-14T15:59:22.851Z,54.10
2017-08-14T16:01:50.383Z,54.10
2017-08-14T16:04:17.915Z,53.60
2017-08-14T16:06:45.491Z,53.90
2017-08-14T16:09:13.033Z,54.10
2017-08-14T16:11:40.563Z,54.70
2017-08-14T16:14:08.893Z,54.20
2017-08-14T16:16:36.443Z,54.10
2017-08-14T16:19:04.002Z,54.10
2017-08-14T16:21:31.556Z,54.00
2017-08-14T16:23:59.107Z,54.30
2017-08-14T16:26:26.637Z,54.80
2017-08-14T16:28:54.216Z,54.20
2017-08-14T16:31:22.523Z,54.90
2017-08-14T16:33:50.103Z,54.80
2017-08-14T16:36:17.702Z,54.30
2017-08-14T16:38:45.243Z,53.90
2017-08-14T16:41:12.779Z,54.20
2017-08-14T16:43:40.345Z,54.50
2017-08-14T16:46:07.875Z,55.10
2017-08-14T16:48:36.171Z,54.60
2017-08-14T16:51:03.754Z,54.60
2017-08-14T16:53:31.289Z,54.90
2017-08-14T16:55:58.817Z,55.50
2017-08-14T16:58:26.374Z,55.50
2017-08-14T17:00:53.916Z,55.20
2017-08-14T17:03:21.466Z,55.80
2017-08-14T17:05:49.022Z,56.10
2017-08-14T17:08:16.543Z,56.40
2017-08-14T17:10:44.084Z,56.20
2017-08-14T17:13:11.649Z,56.30
2017-08-14T17:15:39.971Z,56.90
2017-08-14T17:18:07.506Z,56.20
2017-08-14T17:20:35.850Z,56.60
2017-08-14T17:23:03.375Z,56.60
2017-08-14T17:25:30.925Z,57.20
2017-08-14T17:27:58.498Z,57.80
2017-08-14T17:30:26.051Z,57.90
2017-08-14T17:32:53.589Z,57.70
2017-08-14T17:35:22.669Z,57.90
2017-08-14T17:37:50.204Z,57.60
2017-08-14T17:40:17.755Z,58.00
2017-08-14T17:42:45.316Z,57.90
2017-08-14T17:45:12.840Z,58.60
2017-08-14T17:47:41.132Z,58.90
2017-08-14T17:50:08.712Z,58.70
2017-08-14T17:52:36.268Z,58.80
2017-08-14T17:55:03.808Z,58.90
2017-08-14T17:57:32.124Z,59.70
2017-08-14T17:59:59.682Z,59.70
2017-08-14T18:02:27.228Z,60.30
2017-08-14T18:04:54.785Z,59.80
2017-08-14T18:07:22.353Z,60.10
2017-08-14T18:09:49.919Z,60.60
2017-08-14T18:12:17.476Z,60.50
2017-08-14T18:14:45.035Z,60.80
2017-08-14T18:17:12.552Z,60.80
2017-08-14T18:19:40.109Z,61.00
2017-08-14T18:22:07.652Z,61.20
2017-08-14T18:24:35.201Z,61.40
2017-08-14T18:27:02.751Z,61.50
2017-08-14T18:29:30.281Z,61.40
2017-08-14T18:31:58.586Z,61.80
2017-08-14T18:34:26.162Z,61.90
2017-08-14T18:36:53.705Z,62.20
2017-08-14T18:39:21.233Z,62.40
2017-08-14T18:41:48.808Z,62.40
2017-08-14T18:44:17.134Z,62.50
2017-08-14T18:46:44.660Z,62.50
2017-08-14T18:49:12.236Z,62.60
2017-08-14T18:51:39.768Z,63.20
2017-08-14T18:54:08.069Z,66.60
2017-08-14T18:56:35.633Z,66.10
2017-08-14T18:59:03.187Z,66.20
2017-08-14T19:01:30.720Z,67.00
2017-08-14T19:03:58.301Z,67.60
2017-08-14T19:06:25.851Z,67.60
2017-08-14T19:08:56.116Z,68.60
2017-08-14T19:11:22.588Z,68.30
2017-08-14T19:13:50.143Z,67.60
2017-08-14T19:16:17.679Z,66.40
2017-08-14T19:18:45.240Z,66.40
2017-08-14T19:21:12.779Z,66.60
2017-08-14T19:23:40.304Z,66.30
2017-08-14T19:26:07.869Z,66.80
2017-08-14T19:28:35.407Z,67.80
2017-08-14T19:31:02.949Z,68.70
2017-08-14T19:33:30.509Z,69.70
2017-08-14T19:35:58.055Z,70.20
2017-08-14T19:38:25.585Z,70.40
2017-08-14T19:40:53.168Z,70.70
2017-08-14T19:43:20.711Z,71.00
2017-08-14T19:45:49.038Z,71.50
2017-08-14T19:48:16.615Z,71.50
2017-08-14T19:50:44.142Z,71.60
2017-08-14T19:53:11.777Z,71.90
2017-08-14T19:55:39.351Z,72.50
2017-08-14T19:58:07.648Z,73.00
2017-08-14T20:00:35.184Z,73.00
2017-08-14T20:03:02.778Z,73.10
2017-08-14T20:05:30.303Z,73.40
2017-08-14T20:07:58.619Z,74.90
2017-08-14T20:10:26.173Z,73.90
2017-08-14T20:12:53.713Z,74.00
2017-08-14T20:15:22.010Z,74.30
2017-08-14T20:17:49.597Z,74.30
2017-08-14T20:20:17.155Z,74.50
2017-08-14T20:22:44.689Z,74.50
2017-08-14T20:25:12.270Z,74.60
2017-08-14T20:27:39.796Z,74.70
2017-08-14T20:30:08.104Z,74.40
2017-08-14T20:32:35.674Z,74.30
2017-08-14T20:35:03.219Z,74.10
2017-08-14T20:37:30.767Z,74.00
2017-08-14T20:39:59.089Z,74.10
2017-08-14T20:42:26.633Z,74.10
2017-08-14T20:44:54.169Z,74.50
2017-08-14T20:47:22.521Z,74.90
2017-08-14T20:49:50.071Z,74.80
2017-08-14T20:52:17.600Z,74.30
2017-08-14T20:54:45.168Z,74.30
2017-08-14T20:57:12.697Z,74.80
2017-08-14T20:59:41.006Z,75.60
2017-08-14T21:02:08.587Z,75.60
2017-08-14T21:04:36.147Z,75.40
2017-08-14T21:07:03.723Z,75.30
2017-08-14T21:09:31.291Z,75.20
2017-08-14T21:11:58.832Z,75.30
2017-08-14T21:14:26.363Z,75.60
2017-08-14T21:16:53.925Z,75.60
2017-08-14T21:19:21.475Z,75.60
2017-08-14T21:21:49.764Z,76.00
2017-08-14T21:24:17.329Z,76.00
2017-08-14T21:26:44.856Z,76.10
2017-08-14T21:29:12.400Z,76.10
2017-08-14T21:31:39.987Z,76.20
2017-08-14T21:34:08.298Z,76.00
2017-08-14T21:36:35.836Z,76.00
2017-08-14T21:39:04.174Z,75.80
2017-08-14T21:41:31.725Z,75.60
2017-08-14T21:43:59.251Z,75.70
2017-08-14T21:46:26.818Z,76.10
2017-08-14T21:48:54.367Z,76.80
2017-08-14T21:51:22.656Z,76.30
2017-08-14T21:53:50.229Z,76.20
2017-08-14T21:56:17.756Z,76.20
2017-08-14T21:58:46.068Z,76.00
2017-08-14T22:01:13.646Z,75.90
2017-08-14T22:03:41.168Z,76.30
2017-08-14T22:06:09.463Z,76.20
2017-08-14T22:08:37.021Z,76.10
2017-08-14T22:11:04.561Z,76.50
2017-08-14T22:13:32.854Z,77.30
2017-08-14T22:16:00.428Z,76.60
2017-08-14T22:18:27.951Z,76.80
2017-08-14T22:20:55.472Z,77.00
2017-08-14T22:23:23.038Z,77.10
2017-08-14T22:25:50.573Z,77.70
2017-08-14T22:28:18.107Z,77.70
2017-08-14T22:30:46.438Z,77.10
2017-08-14T22:33:13.961Z,77.70
2017-08-14T22:35:42.278Z,78.20
2017-08-14T22:38:10.361Z,78.30
2017-08-14T22:40:37.896Z,78.10
2017-08-14T22:43:05.421Z,78.10
2017-08-14T22:45:32.979Z,78.10
2017-08-14T22:48:00.515Z,78.40
2017-08-14T22:50:28.061Z,78.50
2017-08-14T22:52:55.695Z,78.80
2017-08-14T22:55:24.011Z,78.90
2017-08-14T22:57:51.560Z,78.80
2017-08-14T23:00:19.139Z,78.70
2017-08-14T23:02:46.669Z,78.60
2017-08-14T23:05:14.228Z,79.00
2017-08-14T23:07:41.788Z,78.70
2017-08-14T23:10:09.340Z,79.10
2017-08-14T23:12:36.882Z,79.20
2017-08-14T23:15:05.214Z,79.00
2017-08-14T23:17:32.749Z,79.70
2017-08-14T23:20:00.299Z,79.70
2017-08-14T23:22:28.631Z,80.20
2017-08-14T23:24:56.176Z,80.20
2017-08-14T23:27:23.704Z,80.10
2017-08-14T23:29:52.044Z,80.40
2017-08-14T23:32:19.583Z,80.40
2017-08-14T23:34:47.113Z,80.70
2017-08-14T23:37:14.690Z,80.60
2017-08-14T23:39:42.216Z,81.10
2017-08-14T23:42:10.551Z,81.70
2017-08-14T23:44:38.100Z,80.90
2017-08-14T23:47:05.683Z,81.00
2017-08-14T23:49:33.234Z,81.20
2017-08-14T23:52:00.756Z,81.30
2017-08-14T23:54:29.100Z,80.70
2017-08-14T23:56:56.625Z,80.70
2017-08-14T23:59:24.188Z,80.60
